Baker City Municipal Airport
KBKE : rendu visible

Aérodrome :











RETROUVEZ-NOUS SUR...

 
LOGIN :

S'inscrire | Disclaimer

   EN    FR    IT 

 









Légende :    VFR   VFR Marginal   IFR   IFR Intensif   IFR Très Intensif
Visi : 
Plafond : 
>= 8 km
>= 3000ft
5 à 8 km
1000 à 3000 ft
1500m à 5 km
500 à 1000 ft
800 à 1500m
200 à 500 ft
< 800m
< 200 ft
Symboles :   Orages  Brouillard  Fortes neiges  Fortes précipitations  Vent > 20 kt






- Altitude de l'aérodrome : 3373 ft


KBKE - Baker City Municipal

DERNIER METAR :
  • 040653Z AUTO 20003KT 10SM CLR 13/06 A3001 RMK AO2 SLP146 T01280061

METARs EXPIRÉS :
  • 040553Z AUTO 27006KT 10SM CLR 15/07 A3001 RMK AO2 SLP144 T01500067 10239 20139 51011
  • 040453Z AUTO 31006KT 10SM CLR 14/08 A3000 RMK AO2 SLP141 T01390078

TAF KBKE
Valide du 04 à 06h jusqu'au 05 à 06h UTC


040520Z 0406/0506 31010KT P6SM SCT200
FIR KZLC / Amérique du Nord



MET'MAP, la Météo Aéronautique d'un coup d'oeil ! - Copyright ORBIFLY Décembre 2007 - Disclaimer

ORBIFLY MET'MAP TEAM :

Programmation & Développement : Alexandra Zaïnal
Sur une idée originale de : Baudouin d'Aumeries
Assistance à la programmation : Marc-Olivier Méhu
Soutien technique & logistique : Manuel Goepfert

Contact : metmap@orbifly.com




SOURCES & CREDITS :

   NOAA       Earth
Advisory